Time;durP1;ratioP1;P1;durP2;ratioP2;P2;SDS_P1;SDS_P2;PMS_P1;PMS_P2;Temp;Humidity;BMP_temperature;BMP_pressure;BME280_temperature;BME280_humidity;BME280_pressure;Samples;Min_cycle;Max_cycle;Signal;HPM_P1;HPM_P2
2022/10/26 00:01:26;;;;;;;;;4.00;3.75;;;;;17.64;68.19;100421.72;4978237;28;45677;-60
2022/10/26 00:03:53;;;;;;;;;4.50;4.50;;;;;17.44;68.43;100390.81;4976823;28;45457;-62
2022/10/26 00:06:20;;;;;;;;;4.20;4.20;;;;;17.60;68.48;100436.13;4978476;28;45428;-62
2022/10/26 00:08:47;;;;;;;;;6.80;3.20;;;;;17.61;68.44;100431.44;4978286;28;46092;-62
2022/10/26 00:11:13;;;;;;;;;5.60;5.60;;;;;17.60;68.50;100429.75;4978002;28;45298;-61
2022/10/26 00:13:38;;;;;;;;;5.00;5.00;;;;;17.59;68.71;100428.06;4978256;28;45226;-59
2022/10/26 00:16:15;;;;;;;;;6.75;4.75;;;;;17.46;68.43;100416.31;4961080;28;45573;-60
2022/10/26 00:18:41;;;;;;;;;3.00;3.00;;;;;17.56;68.28;100418.34;4960337;28;45604;-62
2022/10/26 00:21:08;;;;;;;;;3.50;3.00;;;;;17.59;68.41;100433.63;4978008;28;45394;-60
2022/10/26 00:23:33;;;;;;;;;0.00;0.00;;;;;17.57;68.30;100428.31;4960251;28;45475;-60
2022/10/26 00:25:59;;;;;;;;;4.00;4.00;;;;;17.38;68.43;100382.69;4978391;28;45553;-60
2022/10/26 00:28:24;;;;;;;;;4.25;4.25;;;;;17.60;68.10;100415.88;4976573;28;46769;-60
2022/10/26 00:30:50;;;;;;;;;5.00;3.75;;;;;17.37;68.11;100383.81;4977508;28;45547;-61
2022/10/26 00:33:15;;;;;;;;;4.25;2.75;;;;;17.60;68.32;100424.19;4975508;28;45368;-60
2022/10/26 00:35:41;;;;;;;;;5.75;4.00;;;;;17.50;68.14;100410.25;4975281;28;45512;-60
2022/10/26 00:38:06;;;;;;;;;5.00;4.25;;;;;17.51;68.18;100415.56;4976493;28;46452;-60
2022/10/26 00:40:32;;;;;;;;;4.25;4.25;;;;;17.32;68.32;100390.16;4975177;28;45375;-60
2022/10/26 00:42:57;;;;;;;;;5.00;3.75;;;;;17.43;68.39;100416.03;4976415;28;45323;-62
2022/10/26 00:45:27;;;;;;;;;3.25;3.25;;;;;17.52;68.36;100430.25;4980467;28;45532;-62
2022/10/26 00:47:57;;;;;;;;;4.00;4.00;;;;;17.52;68.87;100424.69;4995470;28;45904;-62
2022/10/26 00:50:36;;;;;;;;;4.00;3.40;;;;;17.52;68.43;100419.16;4975796;28;45319;-62
2022/10/26 00:53:02;;;;;;;;;5.00;5.00;;;;;17.48;68.40;100413.28;4988834;28;45531;-62
2022/10/26 00:55:30;;;;;;;;;4.00;4.00;;;;;17.48;68.48;100416.06;4994803;28;45488;-62
2022/10/26 00:57:56;;;;;;;;;5.80;4.00;;;;;17.49;68.65;100426.06;4994358;28;46313;-62
2022/10/26 01:00:24;;;;;;;;;3.25;3.25;;;;;17.54;68.46;100447.44;4994874;28;45369;-62
2022/10/26 01:02:50;;;;;;;;;5.80;5.00;;;;;17.47;68.47;100433.81;4994497;28;45537;-62
2022/10/26 01:05:16;;;;;;;;;3.25;3.25;;;;;17.47;68.63;100448.50;4994232;28;45589;-62
2022/10/26 01:07:41;;;;;;;;;7.60;6.60;;;;;17.44;68.61;100446.28;4994460;28;46108;-62
2022/10/26 01:10:07;;;;;;;;;4.75;4.75;;;;;17.54;68.83;100464.09;4993908;28;45453;-62
2022/10/26 01:12:33;;;;;;;;;2.00;2.00;;;;;17.56;68.68;100468.28;4995595;28;45448;-62
2022/10/26 01:15:01;;;;;;;;;6.25;5.00;;;;;17.56;68.75;100465.50;4995763;28;45295;-62
2022/10/26 01:17:29;;;;;;;;;6.60;6.60;;;;;17.53;68.91;100465.19;4977360;28;46464;-62
2022/10/26 01:20:22;;;;;;;;;6.00;6.00;;;;;17.54;68.90;100469.66;4995296;28;45357;-61
2022/10/26 01:22:50;;;;;;;;;7.00;7.00;;;;;17.52;68.68;100469.94;4995361;28;45246;-60
2022/10/26 01:25:37;;;;;;;;;9.00;7.60;;;;;17.57;68.87;100477.47;4994172;28;45384;-60
2022/10/26 01:28:06;;;;;;;;;9.20;8.20;;;;;17.48;68.88;100479.88;4994965;28;45408;-60
2022/10/26 01:30:38;;;;;;;;;11.60;7.00;;;;;17.19;69.01;100431.09;4993923;28;45443;-61
2022/10/26 01:33:14;;;;;;;;;9.50;8.75;;;;;17.48;69.25;100485.44;4934183;28;1284254;-61
2022/10/26 01:35:55;;;;;;;;;9.00;9.00;;;;;17.46;69.13;100485.69;4996953;28;45308;-61
2022/10/26 01:38:47;;;;;;;;;9.00;9.00;;;;;17.34;69.50;100466.44;4994558;28;47641;-61
2022/10/26 01:41:17;;;;;;;;;10.80;7.60;;;;;17.44;69.45;100487.91;4994871;28;45219;-61
2022/10/26 01:43:45;;;;;;;;;4.40;4.40;;;;;16.73;69.26;100366.91;4994565;28;45492;-61
2022/10/26 01:46:11;;;;;;;;;10.00;8.80;;;;;17.38;69.39;100468.69;4985993;28;45703;-61
2022/10/26 01:48:37;;;;;;;;;9.00;9.00;;;;;17.43;69.21;100483.44;4974738;28;46740;-61
2022/10/26 01:51:03;;;;;;;;;10.00;8.00;;;;;17.44;69.49;100485.13;4958861;28;45319;-61
2022/10/26 01:53:31;;;;;;;;;9.60;7.00;;;;;17.46;69.50;100485.69;4958644;28;45451;-62
2022/10/26 01:55:57;;;;;;;;;9.20;5.80;;;;;17.46;69.40;100487.63;4976717;28;45331;-61
2022/10/26 01:58:28;;;;;;;;;7.50;6.75;;;;;17.48;69.13;100491.81;4974790;28;46475;-61
2022/10/26 02:01:04;;;;;;;;;5.00;5.00;;;;;17.41;69.20;100462.63;4975267;28;45672;-61
2022/10/26 02:03:49;;;;;;;;;7.60;6.80;;;;;17.50;69.29;100487.94;4972287;28;45238;-61
2022/10/26 02:06:22;;;;;;;;;6.60;6.00;;;;;17.45;69.13;100497.88;4984304;28;46099;-61
2022/10/26 02:09:01;;;;;;;;;7.00;5.00;;;;;17.55;69.12;100507.41;4974727;28;45378;-61
2022/10/26 02:11:37;;;;;;;;;7.20;6.00;;;;;16.94;68.81;100415.91;4974686;28;45385;-61
2022/10/26 02:14:08;;;;;;;;;6.40;5.60;;;;;17.60;68.97;100515.75;4975273;28;45531;-60
2022/10/26 02:16:57;;;;;;;;;4.60;4.60;;;;;17.62;68.90;100510.81;4991039;28;45460;-60
2022/10/26 02:19:39;;;;;;;;;6.60;4.80;;;;;17.60;68.78;100510.22;4972759;28;45564;-60
2022/10/26 02:22:20;;;;;;;;;4.80;4.80;;;;;17.66;68.80;100520.25;4974524;28;45382;-60
2022/10/26 02:24:46;;;;;;;;;5.00;4.00;;;;;17.49;68.62;100484.31;4974503;28;45471;-60
2022/10/26 02:27:15;;;;;;;;;6.50;4.00;;;;;17.64;68.56;100500.25;4976269;28;45279;-60
2022/10/26 02:29:40;;;;;;;;;5.00;3.00;;;;;16.99;68.65;100406.78;4974294;28;45540;-60
2022/10/26 02:32:06;;;;;;;;;6.00;6.00;;;;;17.70;68.67;100510.31;4974084;28;45413;-61
2022/10/26 02:34:31;;;;;;;;;4.50;4.00;;;;;17.69;68.49;100516.09;4974758;28;45409;-60
2022/10/26 02:36:57;;;;;;;;;5.75;5.00;;;;;17.70;68.63;100515.00;4974933;28;45402;-61
2022/10/26 02:39:23;;;;;;;;;7.00;4.60;;;;;17.70;68.48;100512.22;4974492;28;45645;-60
2022/10/26 02:41:48;;;;;;;;;4.00;4.00;;;;;17.72;68.72;100515.59;4974287;28;45395;-60
2022/10/26 02:44:19;;;;;;;;;3.75;3.75;;;;;17.50;68.31;100483.22;4991205;28;45385;-60
2022/10/26 02:46:44;;;;;;;;;5.00;3.00;;;;;17.72;68.46;100523.91;4984137;28;45414;-60
2022/10/26 02:49:10;;;;;;;;;2.25;2.25;;;;;17.52;68.36;100492.13;4995560;28;45705;-61
2022/10/26 02:51:47;;;;;;;;;4.50;3.00;;;;;17.71;68.27;100506.41;4993693;28;45483;-60
2022/10/26 02:54:31;;;;;;;;;4.60;4.00;;;;;17.77;68.09;100512.00;4961822;28;45503;-60
2022/10/26 02:57:10;;;;;;;;;4.20;3.40;;;;;17.78;67.85;100508.13;4994157;28;45430;-63
2022/10/26 02:59:36;;;;;;;;;3.40;3.40;;;;;17.77;67.60;100507.28;4994273;28;45652;-60
2022/10/26 03:02:02;;;;;;;;;3.00;3.00;;;;;17.41;67.89;100449.59;4977700;28;45934;-60
2022/10/26 03:04:29;;;;;;;;;3.00;2.00;;;;;17.66;67.75;100475.84;4993772;28;45310;-60
2022/10/26 03:06:54;;;;;;;;;2.00;2.00;;;;;17.87;67.86;100514.84;4977800;28;45569;-60
2022/10/26 03:09:20;;;;;;;;;5.25;4.00;;;;;17.88;67.55;100506.25;4995250;28;45395;-60
2022/10/26 03:11:45;;;;;;;;;5.00;2.75;;;;;17.56;67.90;100459.97;4993558;28;46167;-60
2022/10/26 03:14:11;;;;;;;;;4.75;3.75;;;;;17.86;67.60;100508.47;4994132;28;45477;-60
2022/10/26 03:16:36;;;;;;;;;5.00;3.75;;;;;17.89;67.56;100518.22;4995271;28;45465;-60
2022/10/26 03:19:02;;;;;;;;;1.50;1.50;;;;;17.91;67.51;100515.16;4993587;28;45476;-60
2022/10/26 03:21:27;;;;;;;;;2.00;2.00;;;;;17.92;67.54;100517.66;4994700;28;45361;-60
2022/10/26 03:23:53;;;;;;;;;4.00;4.00;;;;;17.92;67.62;100522.41;4994979;28;45321;-60
2022/10/26 03:26:19;;;;;;;;;2.50;2.50;;;;;17.92;67.76;100527.94;4995369;28;45348;-60
2022/10/26 03:28:44;;;;;;;;;2.00;2.00;;;;;17.87;67.62;100531.50;4994700;28;45744;-60
2022/10/26 03:31:10;;;;;;;;;3.50;3.50;;;;;17.90;67.53;100542.09;4994644;28;45916;-60
2022/10/26 03:33:35;;;;;;;;;2.75;2.75;;;;;17.89;67.50;100541.25;4974704;28;45342;-60
2022/10/26 03:36:01;;;;;;;;;3.00;2.25;;;;;17.79;67.66;100523.69;4995393;28;45578;-60
2022/10/26 03:38:26;;;;;;;;;5.75;4.00;;;;;17.88;67.33;100547.91;4992959;28;47201;-60
2022/10/26 03:40:52;;;;;;;;;2.25;2.25;;;;;17.86;67.42;100549.25;4995030;28;45407;-60
2022/10/26 03:43:17;;;;;;;;;3.00;3.00;;;;;17.84;67.52;100554.25;4994734;28;45374;-59
2022/10/26 03:45:43;;;;;;;;;3.75;3.75;;;;;17.83;67.43;100544.25;4994533;28;45276;-60
2022/10/26 03:48:08;;;;;;;;;1.50;1.50;;;;;17.82;67.50;100562.03;5009374;28;48753;-60
2022/10/26 03:50:34;;;;;;;;;3.50;3.25;;;;;17.69;67.75;100544.72;5026657;28;45419;-60
2022/10/26 03:52:59;;;;;;;;;3.25;3.25;;;;;17.81;67.73;100579.75;5009562;28;45394;-60
2022/10/26 03:55:25;;;;;;;;;2.50;2.50;;;;;17.58;67.45;100551.25;4994829;28;45540;-60
2022/10/26 03:57:50;;;;;;;;;4.00;4.00;;;;;17.80;67.75;100592.81;4994420;28;46456;-61
2022/10/26 04:00:16;;;;;;;;;2.00;2.00;;;;;17.60;67.56;100566.56;5026161;28;45475;-60
2022/10/26 04:02:45;;;;;;;;;3.00;2.00;;;;;17.77;67.47;100598.88;4993198;28;45450;-60
2022/10/26 04:05:11;;;;;;;;;2.00;2.00;;;;;17.75;67.65;100601.94;4994715;28;45497;-60
2022/10/26 04:07:36;;;;;;;;;4.50;3.50;;;;;17.73;67.50;100592.19;5009387;28;46298;-61
2022/10/26 04:10:03;;;;;;;;;2.75;2.75;;;;;17.73;67.46;100597.75;4995975;28;45291;-60
2022/10/26 04:12:28;;;;;;;;;3.20;3.20;;;;;17.11;67.47;100508.38;4997835;28;45458;-60
2022/10/26 04:14:56;;;;;;;;;4.25;2.25;;;;;17.70;67.71;100604.66;4998320;28;45572;-59
2022/10/26 04:17:23;;;;;;;;;4.60;2.80;;;;;17.67;67.71;100593.25;4995776;28;46124;-59
2022/10/26 04:19:48;;;;;;;;;5.00;3.40;;;;;17.71;67.67;100616.59;4997714;28;45428;-59
2022/10/26 04:22:14;;;;;;;;;3.00;3.00;;;;;17.55;67.56;100593.44;4997607;28;45294;-60
2022/10/26 04:24:39;;;;;;;;;2.00;2.00;;;;;17.63;67.54;100609.59;4997883;28;45397;-60
2022/10/26 04:27:05;;;;;;;;;4.00;3.00;;;;;17.66;67.64;100620.16;5012527;28;47894;-59
2022/10/26 04:29:30;;;;;;;;;3.00;3.00;;;;;17.64;67.70;100619.59;4997319;28;45383;-60
2022/10/26 04:31:56;;;;;;;;;3.25;3.25;;;;;17.63;67.77;100631.78;4997438;28;45390;-59
2022/10/26 04:34:21;;;;;;;;;0.75;0.75;;;;;17.45;67.66;100608.84;4997564;28;45782;-60
2022/10/26 04:36:47;;;;;;;;;5.00;4.00;;;;;17.56;67.92;100633.94;4997316;28;45372;-60
2022/10/26 04:39:12;;;;;;;;;3.25;3.00;;;;;17.52;68.24;100643.88;5012399;28;45302;-60
2022/10/26 04:41:38;;;;;;;;;4.00;2.00;;;;;17.50;68.40;100654.41;4997313;28;45377;-60
2022/10/26 04:44:03;;;;;;;;;3.00;2.00;;;;;17.51;68.51;100656.09;4997226;28;45298;-60
2022/10/26 04:46:29;;;;;;;;;3.00;3.00;;;;;17.48;68.37;100661.06;4982432;28;47598;-59
2022/10/26 04:48:54;;;;;;;;;0.00;0.00;;;;;17.25;68.47;100626.13;4983764;28;45342;-60
2022/10/26 04:51:20;;;;;;;;;4.75;3.25;;;;;17.45;68.36;100669.06;4995841;28;45272;-61
2022/10/26 04:53:45;;;;;;;;;4.25;3.00;;;;;17.41;68.56;100679.84;4997057;28;45438;-60
2022/10/26 04:56:11;;;;;;;;;4.00;3.25;;;;;17.43;68.64;100685.13;4997280;28;45421;-60
2022/10/26 04:58:36;;;;;;;;;3.25;3.00;;;;;17.39;68.58;100673.69;4995481;28;45449;-62
2022/10/26 05:01:02;;;;;;;;;4.75;3.75;;;;;17.40;68.63;100692.00;4997467;28;45310;-63
2022/10/26 05:03:27;;;;;;;;;4.75;3.00;;;;;17.42;68.73;100687.06;4997101;28;45648;-62
2022/10/26 05:05:53;;;;;;;;;4.00;3.00;;;;;16.59;69.21;100568.75;4996814;28;46470;-61
2022/10/26 05:08:18;;;;;;;;;2.00;2.00;;;;;17.27;68.72;100679.41;4997095;28;45444;-61
2022/10/26 05:10:48;;;;;;;;;3.00;3.00;;;;;17.37;68.58;100698.09;4996824;28;45452;-61
2022/10/26 05:13:14;;;;;;;;;5.20;4.80;;;;;17.39;68.66;100701.44;4997308;28;45358;-61
2022/10/26 05:15:39;;;;;;;;;5.00;3.75;;;;;17.37;68.66;100705.56;4996841;28;45440;-61
2022/10/26 05:18:06;;;;;;;;;2.25;2.25;;;;;17.37;68.41;100709.19;4995018;28;45311;-61
2022/10/26 05:20:33;;;;;;;;;3.00;2.60;;;;;17.37;68.53;100702.78;4995177;28;45280;-60
2022/10/26 05:23:00;;;;;;;;;6.40;4.00;;;;;17.31;68.64;100713.84;4994958;28;45284;-60
2022/10/26 05:25:26;;;;;;;;;3.00;3.00;;;;;17.31;68.71;100719.41;4995068;28;48505;-61
2022/10/26 05:27:55;;;;;;;;;3.80;3.80;;;;;17.32;68.71;100717.44;4996288;28;45319;-61
2022/10/26 05:30:21;;;;;;;;;3.60;3.60;;;;;17.25;68.90;100716.81;4997134;28;45483;-62
2022/10/26 05:32:53;;;;;;;;;3.25;3.25;;;;;17.29;68.63;100729.88;4994964;28;45525;-61
2022/10/26 05:35:21;;;;;;;;;1.20;1.20;;;;;17.23;68.78;100722.59;4996147;28;46681;-61
2022/10/26 05:37:47;;;;;;;;;4.80;2.60;;;;;17.29;68.87;100737.38;4996389;28;45462;-62
2022/10/26 05:40:12;;;;;;;;;5.00;4.00;;;;;17.28;68.82;100731.00;4996238;28;45397;-62
2022/10/26 05:42:38;;;;;;;;;3.50;3.50;;;;;17.25;69.03;100747.31;4996566;28;45393;-62
2022/10/26 05:45:04;;;;;;;;;2.00;2.00;;;;;17.22;69.07;100748.66;4995466;28;45993;-61
2022/10/26 05:47:29;;;;;;;;;3.25;3.25;;;;;17.18;69.36;100753.06;4996027;28;45331;-62
2022/10/26 05:49:54;;;;;;;;;3.00;3.00;;;;;17.20;69.05;100762.78;4987061;28;45342;-62
2022/10/26 05:52:20;;;;;;;;;5.50;4.00;;;;;17.24;68.87;100762.28;4981931;28;45542;-62
2022/10/26 05:54:46;;;;;;;;;2.00;1.00;;;;;17.25;69.02;100758.41;4973933;28;47839;-62
2022/10/26 05:57:12;;;;;;;;;5.00;4.00;;;;;17.26;68.96;100771.16;4994808;28;45757;-62
2022/10/26 05:59:38;;;;;;;;;7.40;4.00;;;;;16.99;68.91;100721.97;4995044;28;45320;-61
2022/10/26 06:02:31;;;;;;;;;4.25;4.00;;;;;16.82;69.18;100699.84;4994681;28;45437;-62
2022/10/26 06:04:57;;;;;;;;;4.60;3.80;;;;;17.19;69.13;100765.81;4977856;28;45486;-62
2022/10/26 06:07:22;;;;;;;;;4.00;4.00;;;;;17.02;69.31;100738.13;4978137;28;45380;-62
2022/10/26 06:09:54;;;;;;;;;5.25;4.00;;;;;17.19;69.06;100772.19;4995872;28;45424;-62
2022/10/26 06:12:20;;;;;;;;;4.00;4.00;;;;;17.18;69.32;100770.53;4993641;28;45362;-62
2022/10/26 06:14:45;;;;;;;;;3.00;3.00;;;;;17.14;69.20;100763.78;4995332;28;45712;-62
2022/10/26 06:17:35;;;;;;;;;5.75;4.00;;;;;17.15;69.46;100776.59;4995002;28;45276;-62
2022/10/26 06:20:20;;;;;;;;;3.80;2.00;;;;;17.12;69.46;100766.00;4994302;28;45448;-61
2022/10/26 06:23:01;;;;;;;;;4.80;4.80;;;;;17.12;69.27;100768.75;4996118;28;45814;-61
2022/10/26 06:25:39;;;;;;;;;6.80;5.40;;;;;17.10;69.49;100770.97;4995180;28;45342;-61
2022/10/26 06:28:07;;;;;;;;;10.00;6.80;;;;;17.03;69.48;100784.16;4993755;28;45616;-61
2022/10/26 06:30:33;;;;;;;;;13.00;10.80;;;;;16.90;69.93;100766.75;4995522;28;45319;-61
2022/10/26 06:33:00;;;;;;;;;13.75;7.50;;;;;16.97;69.94;100790.69;4995164;28;45464;-61
2022/10/26 06:35:42;;;;;;;;;5.80;4.40;;;;;16.91;70.03;100800.84;4994920;28;46160;-62
2022/10/26 06:38:11;;;;;;;;;12.20;7.60;;;;;16.91;70.10;100803.63;4994838;28;45429;-63
2022/10/26 06:40:37;;;;;;;;;8.60;7.00;;;;;16.88;70.00;100806.91;4977885;28;45375;-61
2022/10/26 06:43:03;;;;;;;;;8.80;7.00;;;;;16.67;70.42;100784.41;4961456;28;45635;-61
2022/10/26 06:45:28;;;;;;;;;9.25;7.75;;;;;16.84;70.26;100814.91;4994732;28;46441;-61
2022/10/26 06:48:21;;;;;;;;;8.00;6.00;;;;;16.83;70.45;100821.53;4995180;28;45396;-62
2022/10/26 06:50:51;;;;;;;;;5.60;5.60;;;;;16.81;70.29;100820.94;4981449;28;45542;-62
2022/10/26 06:53:36;;;;;;;;;9.20;7.00;;;;;16.87;70.20;100824.66;5006437;28;45440;-61
2022/10/26 06:56:01;;;;;;;;;7.60;7.60;;;;;16.84;70.58;100827.91;4991204;28;45527;-61
2022/10/26 06:58:29;;;;;;;;;6.25;4.50;;;;;16.85;70.27;100844.28;4995016;28;45337;-62
2022/10/26 07:00:55;;;;;;;;;7.20;5.80;;;;;16.80;70.47;100844.19;4993918;28;45315;-61
2022/10/26 07:03:20;;;;;;;;;6.00;4.25;;;;;16.88;70.06;100852.13;4994032;28;45482;-61
2022/10/26 07:05:46;;;;;;;;;4.75;4.50;;;;;16.91;70.19;100853.50;4994923;28;46942;-61
2022/10/26 07:08:12;;;;;;;;;8.00;7.00;;;;;16.92;70.07;100850.50;4994749;28;45328;-60
2022/10/26 07:10:41;;;;;;;;;5.75;4.50;;;;;16.91;70.08;100859.91;4993267;28;45349;-61
2022/10/26 07:13:07;;;;;;;;;6.80;5.80;;;;;16.82;70.46;100855.91;4995421;28;45802;-61
2022/10/26 07:15:36;;;;;;;;;5.00;4.00;;;;;16.88;70.16;100867.91;4994381;28;45496;-62
2022/10/26 07:18:04;;;;;;;;;4.40;4.00;;;;;16.90;70.22;100863.78;4994440;28;45418;-62
2022/10/26 07:20:30;;;;;;;;;5.60;4.40;;;;;16.93;70.30;100879.91;4993433;28;45365;-62
2022/10/26 07:22:56;;;;;;;;;7.25;7.25;;;;;16.91;70.37;100882.09;4994915;28;45430;-60
2022/10/26 07:25:24;;;;;;;;;5.75;4.00;;;;;16.89;70.34;100878.75;4994200;28;45967;-61
2022/10/26 07:27:50;;;;;;;;;4.20;4.20;;;;;16.85;70.57;100885.88;4994528;28;45428;-61
2022/10/26 07:30:16;;;;;;;;;6.50;6.50;;;;;16.82;70.30;100879.97;4994991;28;45780;-61
2022/10/26 07:32:41;;;;;;;;;6.25;6.25;;;;;16.91;70.20;100907.03;4994395;28;45539;-61
2022/10/26 07:35:07;;;;;;;;;5.00;5.00;;;;;16.88;70.36;100895.63;4993128;28;45568;-61
2022/10/26 07:37:33;;;;;;;;;6.25;6.25;;;;;16.96;70.10;100919.31;5009166;28;45290;-62
2022/10/26 07:39:58;;;;;;;;;13.50;9.00;;;;;16.98;70.33;100908.81;4993268;28;45445;-62
2022/10/26 07:42:24;;;;;;;;;10.75;10.75;;;;;17.02;70.15;100923.91;4994577;28;45383;-62
2022/10/26 07:44:49;;;;;;;;;8.00;5.00;;;;;17.04;70.12;100919.75;4993344;28;45476;-62
2022/10/26 07:47:15;;;;;;;;;10.50;4.75;;;;;17.01;70.08;100916.63;4958308;28;46361;-61
2022/10/26 07:49:43;;;;;;;;;4.00;4.00;;;;;17.03;70.19;100931.13;4974741;28;45513;-60
2022/10/26 07:52:08;;;;;;;;;4.80;4.00;;;;;17.00;70.13;100939.88;4975992;28;45486;-62
2022/10/26 07:54:34;;;;;;;;;7.00;5.00;;;;;17.02;70.18;100937.75;4972081;28;45596;-62
2022/10/26 07:56:59;;;;;;;;;5.00;4.00;;;;;17.02;70.20;100938.59;4973745;28;45458;-60
2022/10/26 07:59:25;;;;;;;;;7.50;5.25;;;;;17.04;70.25;100933.63;4992623;28;45480;-62
2022/10/26 08:01:51;;;;;;;;;6.25;6.25;;;;;17.10;69.92;100937.34;4961778;28;45476;-61
2022/10/26 08:04:16;;;;;;;;;8.50;6.00;;;;;17.13;69.96;100949.88;4993203;28;45467;-61
2022/10/26 08:06:42;;;;;;;;;8.50;6.75;;;;;17.15;69.93;100951.28;4993018;28;45378;-61
2022/10/26 08:09:07;;;;;;;;;3.75;3.75;;;;;17.15;70.09;100956.00;4993142;28;45428;-60
2022/10/26 08:11:35;;;;;;;;;6.00;4.75;;;;;17.14;69.75;100946.81;4991162;28;45658;-60
2022/10/26 08:14:10;;;;;;;;;4.40;4.20;;;;;17.17;69.99;100951.03;5024517;28;47130;-60
2022/10/26 08:16:38;;;;;;;;;4.80;4.20;;;;;16.88;69.88;100906.69;4979790;28;45646;-62
2022/10/26 08:19:04;;;;;;;;;5.40;5.40;;;;;17.22;69.95;100964.97;4991180;28;45417;-60
2022/10/26 08:21:29;;;;;;;;;5.50;4.75;;;;;17.11;69.83;100941.78;4993239;28;45809;-61
2022/10/26 08:23:55;;;;;;;;;5.25;4.50;;;;;17.26;69.98;100970.88;4991167;28;46345;-62
2022/10/26 08:26:20;;;;;;;;;4.50;4.25;;;;;17.29;70.07;100981.47;4992415;28;45409;-62
2022/10/26 08:28:47;;;;;;;;;4.50;4.00;;;;;17.25;69.89;100974.75;4992748;28;45448;-62
2022/10/26 08:31:13;;;;;;;;;6.40;4.60;;;;;17.32;69.77;100975.41;4977570;28;45444;-63
2022/10/26 08:33:38;;;;;;;;;6.00;4.75;;;;;17.24;69.81;100968.34;4980127;28;45953;-62
2022/10/26 08:36:04;;;;;;;;;4.25;4.25;;;;;17.33;70.08;100974.31;4991973;28;45845;-62
2022/10/26 08:38:30;;;;;;;;;4.25;4.25;;;;;17.35;69.98;100977.69;4993183;28;45433;-61
2022/10/26 08:40:56;;;;;;;;;5.75;5.00;;;;;17.34;70.03;100968.53;4990118;28;45498;-62
2022/10/26 08:43:23;;;;;;;;;7.40;5.00;;;;;17.40;69.99;100974.97;4982846;28;45663;-60
2022/10/26 08:45:56;;;;;;;;;5.00;3.40;;;;;17.42;69.94;100986.69;4957565;28;45592;-64
2022/10/26 08:48:33;;;;;;;;;5.60;4.60;;;;;17.41;69.94;100973.91;4987924;28;45474;-63
2022/10/26 08:51:01;;;;;;;;;4.60;3.20;;;;;17.48;69.42;100985.69;4991741;28;45594;-62
2022/10/26 08:53:52;;;;;;;;;3.80;3.80;;;;;17.51;69.61;100986.25;4992767;28;46100;-64
2022/10/26 08:56:24;;;;;;;;;5.00;5.00;;;;;17.56;69.54;100998.28;4990725;28;45485;-64
2022/10/26 08:59:01;;;;;;;;;9.80;5.20;;;;;17.61;69.58;100997.53;4991382;28;45569;-62
2022/10/26 09:01:34;;;;;;;;;9.20;8.00;;;;;17.64;69.69;100998.94;4990997;28;45545;-61
2022/10/26 09:04:01;;;;;;;;;4.80;4.80;;;;;17.67;69.54;100998.44;4990736;28;45860;-61
2022/10/26 09:06:57;;;;;;;;;4.80;3.60;;;;;17.71;69.31;101014.34;4989195;28;45562;-61
2022/10/26 09:09:28;;;;;;;;;6.60;4.80;;;;;17.53;69.46;100982.13;4991076;28;45495;-64
2022/10/26 09:12:39;;;;;;;;;3.40;3.00;;;;;17.82;69.11;101008.94;4989965;28;45715;-67
2022/10/26 09:15:12;;;;;;;;;3.00;3.00;;;;;17.86;68.84;101012.88;4993683;28;46561;-62
2022/10/26 09:17:44;;;;;;;;;14.40;8.00;;;;;17.91;68.86;101026.00;4984671;28;45482;-64
2022/10/26 09:20:37;;;;;;;;;10.80;5.80;;;;;17.95;68.33;101022.47;4992438;28;45366;-60
2022/10/26 09:23:20;;;;;;;;;3.60;3.60;;;;;18.00;68.61;101025.31;4991726;28;45381;-62
2022/10/26 09:25:48;;;;;;;;;3.00;3.00;;;;;18.05;68.58;101027.38;4988377;28;46743;-64
2022/10/26 09:28:16;;;;;;;;;4.40;2.40;;;;;18.08;68.10;101026.03;4986242;28;45459;-62
2022/10/26 09:30:43;;;;;;;;;4.80;4.20;;;;;18.12;68.19;101030.81;4990453;28;45551;-66
2022/10/26 09:33:16;;;;;;;;;5.60;3.20;;;;;18.12;67.41;101018.84;4990982;28;45986;-61
2022/10/26 09:35:48;;;;;;;;;2.00;2.00;;;;;18.22;67.27;101027.34;4981495;28;46923;-61
2022/10/26 09:38:31;;;;;;;;;3.40;2.40;;;;;18.26;66.50;101033.22;4955141;28;45425;-62
2022/10/26 09:41:14;;;;;;;;;3.60;3.60;;;;;18.34;66.37;101035.53;4973937;28;45415;-65
2022/10/26 09:43:48;;;;;;;;;2.40;2.40;;;;;18.17;65.19;100999.47;4992227;28;45840;-64
2022/10/26 09:46:20;;;;;;;;;6.20;3.00;;;;;18.45;65.50;101044.03;4968477;28;45847;-60
2022/10/26 09:48:52;;;;;;;;;6.20;3.00;;;;;18.54;65.38;101045.25;4987832;28;45743;-64
2022/10/26 09:51:18;;;;;;;;;6.60;2.40;;;;;18.58;65.13;101056.69;4972266;28;45880;-66
2022/10/26 09:53:43;;;;;;;;;2.25;1.75;;;;;18.62;64.85;101047.56;4980981;28;45525;-64
2022/10/26 09:56:10;;;;;;;;;3.00;3.00;;;;;18.71;64.88;101056.28;4989073;28;46168;-60
2022/10/26 09:58:49;;;;;;;;;2.00;2.00;;;;;18.80;64.84;101065.84;4989372;28;45390;-61
2022/10/26 10:01:34;;;;;;;;;1.80;1.00;;;;;18.86;64.36;101054.78;4970798;28;45414;-58
2022/10/26 10:04:11;;;;;;;;;1.40;1.20;;;;;19.06;63.70;101068.94;4970065;28;45457;-64
2022/10/26 10:06:38;;;;;;;;;3.60;3.60;;;;;19.21;63.51;101081.38;4988645;28;45423;-63
2022/10/26 10:09:20;;;;;;;;;3.20;2.20;;;;;19.00;62.78;101014.34;4972689;28;45782;-63
2022/10/26 10:11:53;;;;;;;;;3.40;2.00;;;;;19.30;62.62;101038.03;4988607;28;45540;-62
2022/10/26 10:14:20;;;;;;;;;3.80;2.60;;;;;19.56;62.04;101066.09;4991120;28;45973;-63
2022/10/26 10:16:54;;;;;;;;;3.60;2.80;;;;;19.83;61.79;101084.69;4972093;28;47026;-68
2022/10/26 10:19:30;;;;;;;;;4.20;2.60;;;;;19.89;61.78;101074.44;4988597;28;45932;-64
2022/10/26 10:21:58;;;;;;;;;1.20;1.20;;;;;20.02;61.22;101074.00;4989568;28;45445;-65
2022/10/26 10:24:27;;;;;;;;;3.60;2.60;;;;;20.24;60.75;101091.69;4981017;28;45717;-64
2022/10/26 10:26:58;;;;;;;;;2.60;1.60;;;;;20.35;60.73;101090.66;4989430;28;45535;-63
2022/10/26 10:29:31;;;;;;;;;2.60;2.40;;;;;20.26;59.97;101061.59;4972266;28;45708;-67
2022/10/26 10:32:03;;;;;;;;;1.60;1.60;;;;;20.65;59.95;101102.25;4953897;28;45449;-66
2022/10/26 10:34:30;;;;;;;;;0.80;0.80;;;;;20.75;59.60;101107.84;4969334;28;45475;-65
2022/10/26 10:36:55;;;;;;;;;3.00;1.80;;;;;20.88;58.99;101105.72;4963160;28;45689;-63
2022/10/26 10:39:41;;;;;;;;;3.25;2.75;;;;;21.00;58.91;101106.31;4989932;28;45442;-66
2022/10/26 10:42:23;;;;;;;;;2.40;1.40;;;;;21.13;58.70;101107.75;4971944;28;45462;-64
2022/10/26 10:44:51;;;;;;;;;2.20;0.80;;;;;21.29;57.79;101091.88;4988234;28;45663;-64
2022/10/26 10:47:35;;;;;;;;;3.60;2.60;;;;;21.89;57.07;101105.34;4969750;28;47340;-63
2022/10/26 10:50:03;;;;;;;;;13.60;10.40;;;;;22.69;55.04;101116.16;4987047;28;45463;-64
2022/10/26 10:52:30;;;;;;;;;3.40;2.00;;;;;25.11;50.37;101099.53;4988579;28;45576;-64
2022/10/26 10:55:20;;;;;;;;;2.80;2.00;;;;;28.81;42.20;101102.66;4988910;28;45502;-66
2022/10/26 10:58:10;;;;;;;;;6.00;4.00;;;;;31.98;36.47;101100.69;4987795;28;46423;-63
2022/10/26 11:00:36;;;;;;;;;2.80;2.20;;;;;33.99;31.47;101107.78;4987748;28;45429;-61
2022/10/26 11:03:08;;;;;;;;;2.00;2.00;;;;;35.42;29.99;101088.00;4989977;28;45452;-66
2022/10/26 11:05:56;;;;;;;;;2.80;1.00;;;;;36.83;28.24;101108.94;4989611;28;45539;-61
2022/10/26 11:09:00;;;;;;;;;3.40;2.60;;;;;37.77;26.24;101106.53;4987056;28;46270;-62
2022/10/26 11:11:51;;;;;;;;;2.20;0.80;;;;;39.12;25.51;101112.22;4967060;28;45550;-61
2022/10/26 11:14:27;;;;;;;;;2.00;2.00;;;;;39.93;24.43;101116.22;4961886;28;45832;-64
2022/10/26 11:17:03;;;;;;;;;1.80;1.80;;;;;40.64;23.50;101117.50;4997511;28;45508;-63
2022/10/26 11:19:32;;;;;;;;;0.60;0.60;;;;;41.37;22.00;101125.16;4987591;28;45944;-65
2022/10/26 11:21:58;;;;;;;;;3.00;1.80;;;;;42.12;21.68;101121.09;4988621;28;45843;-65
2022/10/26 11:24:48;;;;;;;;;1.00;1.00;;;;;42.54;21.21;101117.47;4971688;28;45478;-64
2022/10/26 11:27:20;;;;;;;;;1.60;0.00;;;;;42.98;20.56;101125.69;4987340;28;45393;-64
2022/10/26 11:30:13;;;;;;;;;2.40;1.60;;;;;43.36;20.25;101124.81;4950020;28;46694;-63
2022/10/26 11:32:55;;;;;;;;;2.80;1.80;;;;;43.86;20.05;101124.19;4987804;28;45470;-67
2022/10/26 11:35:39;;;;;;;;;2.00;1.40;;;;;44.17;18.84;101096.44;4988946;28;45341;-66
2022/10/26 11:38:20;;;;;;;;;0.40;0.40;;;;;44.68;19.28;101094.34;4988548;28;45374;-66